Time;durP1;ratioP1;P1;durP2;ratioP2;P2;SDS_P1;SDS_P2;PMS_P1;PMS_P2;Temp;Humidity;BMP_temperature;BMP_pressure;BME280_temperature;BME280_humidity;BME280_pressure;Samples;Min_cycle;Max_cycle;Signal;HPM_P1;HPM_P2
2024/04/18 00:01:45;;;;;;;17.57;16.93;;;;;;;;;;5455799;26;20581;-70
2024/04/18 00:04:11;;;;;;;18.10;17.40;;;;;;;;;;5455869;25;20614;-70
2024/04/18 00:06:40;;;;;;;18.40;17.70;;;;;;;;;;5455284;26;20988;-70
2024/04/18 00:09:06;;;;;;;17.97;17.27;;;;;;;;;;5452278;26;20532;-69
2024/04/18 00:11:38;;;;;;;18.53;17.83;;;;;;;;;;5452154;26;20569;-69
2024/04/18 00:14:04;;;;;;;18.13;17.43;;;;;;;;;;5457173;26;20478;-70
2024/04/18 00:16:33;;;;;;;18.03;17.33;;;;;;;;;;5454668;26;22783;-70
2024/04/18 00:18:59;;;;;;;18.03;17.33;;;;;;;;;;5454381;25;20825;-69
2024/04/18 00:21:28;;;;;;;17.97;17.30;;;;;;;;;;5459158;25;20477;-69
2024/04/18 00:23:54;;;;;;;17.70;17.07;;;;;;;;;;5435550;26;20890;-69
2024/04/18 00:26:23;;;;;;;18.60;17.90;;;;;;;;;;5437417;26;20473;-69
2024/04/18 00:28:52;;;;;;;18.30;17.60;;;;;;;;;;5434594;26;20521;-69
2024/04/18 00:31:21;;;;;;;18.20;17.50;;;;;;;;;;5434909;26;21171;-71
2024/04/18 00:33:47;;;;;;;18.20;17.50;;;;;;;;;;5434274;26;20529;-70
2024/04/18 00:36:16;;;;;;;18.10;17.40;;;;;;;;;;5435409;26;20580;-69
2024/04/18 00:38:42;;;;;;;18.80;18.10;;;;;;;;;;5435768;26;20486;-70
2024/04/18 00:41:11;;;;;;;18.83;18.13;;;;;;;;;;5437254;26;21198;-69
2024/04/18 00:43:37;;;;;;;18.27;17.57;;;;;;;;;;5436429;26;20474;-70
2024/04/18 00:46:09;;;;;;;17.47;16.87;;;;;;;;;;5434126;26;20575;-69
2024/04/18 00:48:36;;;;;;;17.43;16.83;;;;;;;;;;5437429;26;20474;-70
2024/04/18 00:51:05;;;;;;;18.50;17.80;;;;;;;;;;5433958;26;20963;-68
2024/04/18 00:53:31;;;;;;;18.23;17.53;;;;;;;;;;5435014;26;20514;-69
2024/04/18 00:56:00;;;;;;;19.07;18.37;;;;;;;;;;5434979;26;20944;-70
2024/04/18 00:58:26;;;;;;;17.90;17.30;;;;;;;;;;5464887;26;20521;-69
2024/04/18 01:00:57;;;;;;;17.57;16.97;;;;;;;;;;5474323;26;20513;-70
2024/04/18 01:03:27;;;;;;;17.63;17.03;;;;;;;;;;5485611;26;20477;-68
2024/04/18 01:05:56;;;;;;;17.77;17.17;;;;;;;;;;5470615;26;20486;-70
2024/04/18 01:08:22;;;;;;;18.03;17.40;;;;;;;;;;5472889;26;20497;-69
2024/04/18 01:10:52;;;;;;;17.40;16.80;;;;;;;;;;5476799;26;20837;-68
2024/04/18 01:13:19;;;;;;;18.33;17.67;;;;;;;;;;5469968;26;20478;-70
2024/04/18 01:15:47;;;;;;;18.30;17.60;;;;;;;;;;5473341;26;20521;-69
2024/04/18 01:18:14;;;;;;;18.10;17.47;;;;;;;;;;5480788;26;20497;-70
2024/04/18 01:20:45;;;;;;;17.97;17.37;;;;;;;;;;5465559;26;20511;-68
2024/04/18 01:23:12;;;;;;;18.50;17.80;;;;;;;;;;5470587;26;20493;-68
2024/04/18 01:25:41;;;;;;;18.80;18.10;;;;;;;;;;5482386;26;20454;-70
2024/04/18 01:28:10;;;;;;;18.57;17.87;;;;;;;;;;5465004;26;20617;-68
2024/04/18 01:30:42;;;;;;;19.07;18.37;;;;;;;;;;5455937;26;21043;-71
2024/04/18 01:33:10;;;;;;;19.13;18.43;;;;;;;;;;5472078;26;21018;-70
2024/04/18 01:35:39;;;;;;;19.50;18.80;;;;;;;;;;5462614;26;20925;-70
2024/04/18 01:38:05;;;;;;;18.60;17.90;;;;;;;;;;5484920;26;20462;-68
2024/04/18 01:40:35;;;;;;;18.10;17.43;;;;;;;;;;5468087;26;21441;-69
2024/04/18 01:43:01;;;;;;;18.67;17.97;;;;;;;;;;5476449;26;20614;-70
2024/04/18 01:45:33;;;;;;;18.47;17.77;;;;;;;;;;5459417;26;20470;-68
2024/04/18 01:47:59;;;;;;;19.20;18.50;;;;;;;;;;5456748;26;20557;-68
2024/04/18 01:50:29;;;;;;;19.30;18.60;;;;;;;;;;5472707;26;20470;-70
2024/04/18 01:52:56;;;;;;;18.50;17.80;;;;;;;;;;5482940;26;20475;-69
2024/04/18 01:55:26;;;;;;;18.70;18.00;;;;;;;;;;5472837;26;21125;-70
2024/04/18 01:57:53;;;;;;;18.90;18.20;;;;;;;;;;5467816;26;20499;-68
2024/04/18 02:00:21;;;;;;;20.00;19.20;;;;;;;;;;5474189;26;20467;-71
2024/04/18 02:02:51;;;;;;;19.00;18.30;;;;;;;;;;5463582;26;20487;-70
2024/04/18 02:05:20;;;;;;;19.90;19.10;;;;;;;;;;5477795;26;20579;-71
2024/04/18 02:07:47;;;;;;;19.13;18.43;;;;;;;;;;5469960;26;20491;-70
2024/04/18 02:10:16;;;;;;;18.80;18.10;;;;;;;;;;5479210;26;20473;-69
2024/04/18 02:12:42;;;;;;;20.13;19.33;;;;;;;;;;5469527;26;20974;-69
2024/04/18 02:15:10;;;;;;;19.90;19.10;;;;;;;;;;5473874;26;21036;-69
2024/04/18 02:17:37;;;;;;;20.47;19.67;;;;;;;;;;5459971;26;20473;-70
2024/04/18 02:20:09;;;;;;;20.40;19.60;;;;;;;;;;5459559;26;20513;-69
2024/04/18 02:22:35;;;;;;;20.00;19.20;;;;;;;;;;5485211;26;21009;-70
2024/04/18 02:25:09;;;;;;;19.77;18.97;;;;;;;;;;5516355;26;20460;-69
2024/04/18 02:27:36;;;;;;;20.27;19.47;;;;;;;;;;5485652;26;20454;-69
2024/04/18 02:30:06;;;;;;;20.40;19.60;;;;;;;;;;5492141;26;20530;-70
2024/04/18 02:32:34;;;;;;;20.33;19.53;;;;;;;;;;5497775;26;20479;-70
2024/04/18 02:35:04;;;;;;;20.37;19.57;;;;;;;;;;5500761;26;20508;-70
2024/04/18 02:37:34;;;;;;;19.87;19.07;;;;;;;;;;5504459;26;20538;-68
2024/04/18 02:40:04;;;;;;;21.30;20.50;;;;;;;;;;5521021;25;20561;-70
2024/04/18 02:42:31;;;;;;;21.17;20.37;;;;;;;;;;5515598;26;20500;-70
2024/04/18 02:45:00;;;;;;;21.20;20.40;;;;;;;;;;5495122;26;20452;-70
2024/04/18 02:47:27;;;;;;;20.20;19.40;;;;;;;;;;5515960;25;20456;-69
2024/04/18 02:49:56;;;;;;;20.23;19.43;;;;;;;;;;5510945;25;20465;-69
2024/04/18 02:52:23;;;;;;;20.90;20.10;;;;;;;;;;5495913;26;21011;-70
2024/04/18 02:54:55;;;;;;;21.30;20.50;;;;;;;;;;5498193;25;20835;-71
2024/04/18 02:57:23;;;;;;;22.17;21.27;;;;;;;;;;5515717;26;20463;-70
2024/04/18 02:59:52;;;;;;;21.57;20.67;;;;;;;;;;5488418;26;20652;-70
2024/04/18 03:02:19;;;;;;;22.60;21.70;;;;;;;;;;5501726;26;20984;-69
2024/04/18 03:04:48;;;;;;;22.10;21.20;;;;;;;;;;5520478;26;20837;-70
2024/04/18 03:07:14;;;;;;;22.10;21.20;;;;;;;;;;5505404;25;20474;-70
2024/04/18 03:09:43;;;;;;;22.17;21.27;;;;;;;;;;5504978;26;20466;-70
2024/04/18 03:12:12;;;;;;;21.80;20.90;;;;;;;;;;5504762;26;20474;-70
2024/04/18 03:14:41;;;;;;;22.43;21.53;;;;;;;;;;5504756;26;20938;-69
2024/04/18 03:17:07;;;;;;;22.47;21.57;;;;;;;;;;5511871;25;20602;-68
2024/04/18 03:19:37;;;;;;;22.00;21.10;;;;;;;;;;5508397;25;20487;-68
2024/04/18 03:22:03;;;;;;;20.67;19.87;;;;;;;;;;5498213;25;20992;-69
2024/04/18 03:24:32;;;;;;;22.13;21.23;;;;;;;;;;5513143;26;21073;-69
2024/04/18 03:26:58;;;;;;;21.93;21.03;;;;;;;;;;5502257;26;20479;-70
2024/04/18 03:29:31;;;;;;;22.30;21.40;;;;;;;;;;5519862;26;20460;-70
2024/04/18 03:31:57;;;;;;;22.50;21.60;;;;;;;;;;5507398;26;20475;-70
2024/04/18 03:34:27;;;;;;;21.97;21.07;;;;;;;;;;5495221;26;20870;-70
2024/04/18 03:36:57;;;;;;;22.20;21.30;;;;;;;;;;5512933;26;20460;-67
2024/04/18 03:39:27;;;;;;;22.30;21.40;;;;;;;;;;5491412;25;20499;-70
2024/04/18 03:41:57;;;;;;;21.40;20.50;;;;;;;;;;5505741;25;21102;-69
2024/04/18 03:44:26;;;;;;;22.50;21.60;;;;;;;;;;5495087;26;20478;-70
2024/04/18 03:46:57;;;;;;;23.00;22.10;;;;;;;;;;5503709;26;20644;-69
2024/04/18 03:49:23;;;;;;;22.93;22.03;;;;;;;;;;5519401;25;20479;-68
2024/04/18 03:51:52;;;;;;;22.40;21.50;;;;;;;;;;5505518;26;20519;-70
2024/04/18 03:54:20;;;;;;;22.20;21.30;;;;;;;;;;5511975;26;20534;-69
2024/04/18 03:56:49;;;;;;;21.50;20.63;;;;;;;;;;5506019;26;20474;-70
2024/04/18 03:59:15;;;;;;;22.20;21.30;;;;;;;;;;5513860;26;20515;-71
2024/04/18 04:01:44;;;;;;;22.67;21.77;;;;;;;;;;5507258;25;20556;-70
2024/04/18 04:04:12;;;;;;;22.20;21.30;;;;;;;;;;5493234;26;21156;-68
2024/04/18 04:06:41;;;;;;;20.80;20.00;;;;;;;;;;5504793;26;20476;-68
2024/04/18 04:09:08;;;;;;;21.87;20.97;;;;;;;;;;5504691;26;20533;-69
2024/04/18 04:11:38;;;;;;;21.40;20.50;;;;;;;;;;5500819;26;20487;-69
2024/04/18 04:14:05;;;;;;;21.30;20.40;;;;;;;;;;5510029;25;20582;-70
2024/04/18 04:16:34;;;;;;;21.90;21.00;;;;;;;;;;5508497;26;20472;-68
2024/04/18 04:19:01;;;;;;;22.20;21.30;;;;;;;;;;5512971;26;20845;-70
2024/04/18 04:21:32;;;;;;;22.10;21.20;;;;;;;;;;5495799;26;21234;-70
2024/04/18 04:23:59;;;;;;;22.33;21.43;;;;;;;;;;5510714;25;20480;-68
2024/04/18 04:26:33;;;;;;;21.53;20.63;;;;;;;;;;5505408;26;20551;-70
2024/04/18 04:29:02;;;;;;;22.00;21.10;;;;;;;;;;5493704;26;21026;-70
2024/04/18 04:31:29;;;;;;;22.33;21.43;;;;;;;;;;5512931;25;20524;-68
2024/04/18 04:33:58;;;;;;;22.10;21.20;;;;;;;;;;5504137;26;20488;-69
2024/04/18 04:36:24;;;;;;;22.13;21.23;;;;;;;;;;5509567;26;20464;-69
2024/04/18 04:38:56;;;;;;;22.90;22.00;;;;;;;;;;5505812;26;20488;-70
2024/04/18 04:41:22;;;;;;;22.33;21.43;;;;;;;;;;5509729;25;20566;-71
2024/04/18 04:43:52;;;;;;;22.53;21.63;;;;;;;;;;5504556;26;20483;-69
2024/04/18 04:46:19;;;;;;;23.30;22.30;;;;;;;;;;5495220;26;21054;-69
2024/04/18 04:48:49;;;;;;;22.47;21.57;;;;;;;;;;5499667;26;20476;-70
2024/04/18 04:51:16;;;;;;;23.17;22.23;;;;;;;;;;5508926;26;20460;-71
2024/04/18 04:53:45;;;;;;;23.13;22.23;;;;;;;;;;5521331;26;20460;-69
2024/04/18 04:56:15;;;;;;;21.97;21.07;;;;;;;;;;5516848;26;20515;-68
2024/04/18 04:58:44;;;;;;;22.27;21.37;;;;;;;;;;5504283;25;21076;-68
2024/04/18 05:01:10;;;;;;;21.17;20.37;;;;;;;;;;5508330;26;20487;-70
2024/04/18 05:03:39;;;;;;;21.70;20.80;;;;;;;;;;5497138;26;21025;-71
2024/04/18 05:06:06;;;;;;;21.20;20.40;;;;;;;;;;5508417;25;20469;-68
2024/04/18 05:08:35;;;;;;;21.40;20.60;;;;;;;;;;5495809;25;20527;-70
2024/04/18 05:11:02;;;;;;;20.83;20.03;;;;;;;;;;5512855;26;21069;-69
2024/04/18 05:13:33;;;;;;;20.57;19.77;;;;;;;;;;5500281;26;20519;-71
2024/04/18 05:16:00;;;;;;;20.90;20.10;;;;;;;;;;5499056;26;20544;-69
2024/04/18 05:18:29;;;;;;;21.87;20.97;;;;;;;;;;5502340;26;20492;-71
2024/04/18 05:20:56;;;;;;;21.80;20.90;;;;;;;;;;5504832;25;20518;-70
2024/04/18 05:23:25;;;;;;;22.33;21.43;;;;;;;;;;5488793;26;20481;-68
2024/04/18 05:25:51;;;;;;;22.30;21.40;;;;;;;;;;5499763;26;20460;-69
2024/04/18 05:28:30;;;;;;;22.87;21.87;;;;;;;;;;5504678;26;20465;-69
2024/04/18 05:31:01;;;;;;;23.00;22.10;;;;;;;;;;5507211;25;20882;-69
2024/04/18 05:33:29;;;;;;;20.90;20.07;;;;;;;;;;5520688;25;20629;-70
2024/04/18 05:35:58;;;;;;;21.63;20.73;;;;;;;;;;5509522;26;20526;-70
2024/04/18 05:38:27;;;;;;;21.10;20.20;;;;;;;;;;5499162;26;20640;-69
2024/04/18 05:40:56;;;;;;;20.83;20.03;;;;;;;;;;5508075;26;20478;-70
2024/04/18 05:43:26;;;;;;;20.20;19.40;;;;;;;;;;5497295;26;20473;-69
2024/04/18 05:45:55;;;;;;;20.60;19.80;;;;;;;;;;5503223;26;20612;-70
2024/04/18 05:48:28;;;;;;;20.20;19.40;;;;;;;;;;5502893;26;20476;-69
2024/04/18 05:50:58;;;;;;;20.00;19.20;;;;;;;;;;5499823;25;20467;-71
2024/04/18 05:53:27;;;;;;;19.00;18.30;;;;;;;;;;5504649;25;20482;-69
2024/04/18 05:55:56;;;;;;;19.40;18.70;;;;;;;;;;5502840;25;20517;-70
2024/04/18 05:58:28;;;;;;;19.80;19.00;;;;;;;;;;5519397;26;20810;-68
2024/04/18 06:00:58;;;;;;;19.10;18.40;;;;;;;;;;5496600;26;20520;-70
2024/04/18 06:03:29;;;;;;;18.17;17.47;;;;;;;;;;5501910;26;20473;-68
2024/04/18 06:05:58;;;;;;;18.53;17.83;;;;;;;;;;5508889;26;21135;-68
2024/04/18 06:08:27;;;;;;;17.90;17.30;;;;;;;;;;5494450;26;20813;-70
2024/04/18 06:10:56;;;;;;;17.77;17.17;;;;;;;;;;5516923;26;21337;-69
2024/04/18 06:13:27;;;;;;;17.53;16.93;;;;;;;;;;5502906;26;20547;-70
2024/04/18 06:15:56;;;;;;;17.93;17.33;;;;;;;;;;5502997;25;20585;-70
2024/04/18 06:18:22;;;;;;;17.80;17.20;;;;;;;;;;5513530;26;20458;-70
2024/04/18 06:20:54;;;;;;;17.33;16.73;;;;;;;;;;5494859;26;20926;-69
2024/04/18 06:23:22;;;;;;;17.93;17.33;;;;;;;;;;5509460;26;20468;-68
2024/04/18 06:25:52;;;;;;;17.60;17.00;;;;;;;;;;5515254;26;20464;-69
2024/04/18 06:28:21;;;;;;;17.60;17.00;;;;;;;;;;5490649;26;20464;-70
2024/04/18 06:30:51;;;;;;;17.47;16.87;;;;;;;;;;5501793;26;20527;-70
2024/04/18 06:33:20;;;;;;;17.40;16.80;;;;;;;;;;5500763;26;20540;-70
2024/04/18 06:35:49;;;;;;;17.10;16.50;;;;;;;;;;5504594;26;20865;-70
2024/04/18 06:38:20;;;;;;;16.53;15.93;;;;;;;;;;5493496;26;20579;-69
2024/04/18 06:40:49;;;;;;;17.60;16.90;;;;;;;;;;5478795;25;20575;-70
2024/04/18 06:43:18;;;;;;;17.60;16.90;;;;;;;;;;5496097;25;20470;-70
2024/04/18 06:45:47;;;;;;;16.60;16.00;;;;;;;;;;5498208;25;20542;-67
2024/04/18 06:48:16;;;;;;;17.47;16.80;;;;;;;;;;5493434;25;21185;-70
2024/04/18 06:50:45;;;;;;;17.40;16.70;;;;;;;;;;5495080;25;20485;-69
2024/04/18 06:53:14;;;;;;;17.50;16.80;;;;;;;;;;5498209;25;20537;-68
2024/04/18 06:55:46;;;;;;;17.37;16.67;;;;;;;;;;5494004;25;20494;-70
2024/04/18 06:58:15;;;;;;;17.37;16.67;;;;;;;;;;5499406;25;20541;-67
2024/04/18 07:00:44;;;;;;;16.37;15.77;;;;;;;;;;5499768;25;20484;-70
2024/04/18 07:03:15;;;;;;;16.93;16.23;;;;;;;;;;5497417;25;20531;-69
2024/04/18 07:05:44;;;;;;;16.83;16.13;;;;;;;;;;5489677;25;20881;-70
2024/04/18 07:08:10;;;;;;;16.97;16.27;;;;;;;;;;5493717;25;20596;-69
2024/04/18 07:10:40;;;;;;;17.17;16.47;;;;;;;;;;5494152;25;20587;-69
2024/04/18 07:13:11;;;;;;;17.80;17.00;;;;;;;;;;5499225;25;20519;-70
2024/04/18 07:15:40;;;;;;;17.67;16.87;;;;;;;;;;5493310;25;20482;-70
2024/04/18 07:18:09;;;;;;;17.20;16.40;;;;;;;;;;5489617;25;20964;-69
2024/04/18 07:20:38;;;;;;;17.93;17.13;;;;;;;;;;5492281;25;20529;-69
2024/04/18 07:23:07;;;;;;;17.90;17.10;;;;;;;;;;5498970;25;20555;-70
2024/04/18 07:25:37;;;;;;;18.23;17.33;;;;;;;;;;5496751;25;20548;-70
2024/04/18 07:28:03;;;;;;;17.70;16.87;;;;;;;;;;5497890;25;20476;-68
2024/04/18 07:30:35;;;;;;;18.27;17.37;;;;;;;;;;5491479;25;20474;-68
2024/04/18 07:33:04;;;;;;;19.20;18.20;;;;;;;;;;5488160;25;21155;-68
2024/04/18 07:35:33;;;;;;;18.30;17.40;;;;;;;;;;5489993;25;20486;-69
2024/04/18 07:38:02;;;;;;;18.53;17.63;;;;;;;;;;5491668;25;20537;-69
2024/04/18 07:40:31;;;;;;;18.93;17.93;;;;;;;;;;5489701;25;20985;-69
2024/04/18 07:43:00;;;;;;;19.47;18.47;;;;;;;;;;5492573;25;20552;-69
2024/04/18 07:45:31;;;;;;;19.80;18.70;;;;;;;;;;5496733;25;20568;-70
2024/04/18 07:48:03;;;;;;;18.67;17.67;;;;;;;;;;5487720;25;20465;-69
2024/04/18 07:50:32;;;;;;;19.80;18.73;;;;;;;;;;5487447;25;20557;-70
2024/04/18 07:53:01;;;;;;;19.40;18.40;;;;;;;;;;5491611;25;21042;-69
2024/04/18 07:55:31;;;;;;;19.67;18.67;;;;;;;;;;5493091;25;21139;-69
2024/04/18 07:58:00;;;;;;;18.70;17.70;;;;;;;;;;5494027;25;20578;-69
2024/04/18 08:00:30;;;;;;;18.53;17.53;;;;;;;;;;5488726;25;20537;-70
2024/04/18 08:03:00;;;;;;;18.50;17.60;;;;;;;;;;5494806;25;20606;-70
2024/04/18 08:05:31;;;;;;;18.47;17.57;;;;;;;;;;5484152;25;20533;-69
2024/04/18 08:08:00;;;;;;;19.43;18.43;;;;;;;;;;5498294;25;20475;-69
2024/04/18 08:10:30;;;;;;;19.13;18.13;;;;;;;;;;5498588;25;20495;-70
2024/04/18 08:12:59;;;;;;;19.60;18.60;;;;;;;;;;5496968;25;20552;-70
2024/04/18 08:15:27;;;;;;;19.60;18.60;;;;;;;;;;5485514;25;21066;-71
2024/04/18 08:17:57;;;;;;;19.80;18.80;;;;;;;;;;5499651;25;20480;-69
2024/04/18 08:20:26;;;;;;;20.20;19.10;;;;;;;;;;5496972;25;20815;-69
2024/04/18 08:22:57;;;;;;;19.37;18.37;;;;;;;;;;5491830;25;20530;-70
2024/04/18 08:25:26;;;;;;;18.97;18.07;;;;;;;;;;5500589;25;20484;-70
2024/04/18 08:27:55;;;;;;;18.53;17.63;;;;;;;;;;5501697;25;20469;-69
2024/04/18 08:30:24;;;;;;;17.87;17.07;;;;;;;;;;5498240;25;20472;-69
2024/04/18 08:32:53;;;;;;;17.80;17.00;;;;;;;;;;5492592;25;20488;-70
2024/04/18 08:35:19;;;;;;;18.17;17.37;;;;;;;;;;5503514;25;21144;-70
2024/04/18 08:37:50;;;;;;;17.97;17.17;;;;;;;;;;5505052;25;20809;-70
2024/04/18 08:40:22;;;;;;;16.97;16.27;;;;;;;;;;5502219;25;20917;-70
2024/04/18 08:42:51;;;;;;;16.80;16.10;;;;;;;;;;5499107;25;20487;-69
2024/04/18 08:45:22;;;;;;;16.77;16.07;;;;;;;;;;5499418;25;20481;-69
2024/04/18 08:47:52;;;;;;;16.13;15.53;;;;;;;;;;5497690;25;20618;-70
2024/04/18 08:50:22;;;;;;;16.90;16.20;;;;;;;;;;5498203;25;20533;-69
2024/04/18 08:52:51;;;;;;;16.00;15.40;;;;;;;;;;5501293;25;20646;-71
2024/04/18 08:55:23;;;;;;;16.53;15.83;;;;;;;;;;5499051;25;20495;-69
2024/04/18 08:57:53;;;;;;;16.23;15.53;;;;;;;;;;5495471;25;20532;-69
2024/04/18 09:00:22;;;;;;;16.67;15.97;;;;;;;;;;5499421;25;20547;-70
2024/04/18 09:02:51;;;;;;;16.93;16.23;;;;;;;;;;5492782;25;20489;-69
2024/04/18 09:05:21;;;;;;;16.73;16.03;;;;;;;;;;5502552;25;20491;-70
2024/04/18 09:07:50;;;;;;;17.30;16.50;;;;;;;;;;5497877;25;20951;-70
2024/04/18 09:10:22;;;;;;;16.90;16.20;;;;;;;;;;5495531;25;20512;-70
2024/04/18 09:12:54;;;;;;;16.80;16.10;;;;;;;;;;5496897;25;20481;-70
2024/04/18 09:15:24;;;;;;;16.80;16.10;;;;;;;;;;5491811;25;20489;-70
2024/04/18 09:18:02;;;;;;;17.30;16.50;;;;;;;;;;5494568;25;20468;-70
2024/04/18 09:20:32;;;;;;;17.23;16.53;;;;;;;;;;5496778;25;20571;-70
2024/04/18 09:23:01;;;;;;;17.37;16.67;;;;;;;;;;5499152;25;21327;-70
2024/04/18 09:25:30;;;;;;;16.90;16.20;;;;;;;;;;5502443;25;21087;-71
2024/04/18 09:28:02;;;;;;;16.87;16.17;;;;;;;;;;5493236;25;20535;-70
2024/04/18 09:30:31;;;;;;;16.83;16.13;;;;;;;;;;5499461;25;20544;-70
2024/04/18 09:33:01;;;;;;;16.70;16.00;;;;;;;;;;5498361;25;20563;-69
2024/04/18 09:35:31;;;;;;;16.50;15.80;;;;;;;;;;5497559;25;20481;-70
2024/04/18 09:38:00;;;;;;;16.87;16.17;;;;;;;;;;5503644;25;20611;-69
2024/04/18 09:40:31;;;;;;;16.70;16.00;;;;;;;;;;5493210;25;20484;-70
2024/04/18 09:43:05;;;;;;;16.70;16.00;;;;;;;;;;5495801;25;20600;-70
2024/04/18 09:45:41;;;;;;;16.40;15.70;;;;;;;;;;5500832;25;20536;-70
2024/04/18 09:48:10;;;;;;;17.00;16.30;;;;;;;;;;5500407;25;21089;-71
2024/04/18 09:50:39;;;;;;;17.20;16.50;;;;;;;;;;5499853;25;20487;-71
2024/04/18 09:53:10;;;;;;;17.57;16.80;;;;;;;;;;5498334;25;20540;-70
2024/04/18 09:55:40;;;;;;;17.30;16.60;;;;;;;;;;5499427;25;20484;-70
2024/04/18 09:58:12;;;;;;;17.03;16.33;;;;;;;;;;5488607;25;20546;-71
2024/04/18 10:00:42;;;;;;;17.20;16.50;;;;;;;;;;5501194;25;21084;-70
2024/04/18 10:03:11;;;;;;;17.70;17.00;;;;;;;;;;5502099;25;20883;-70
2024/04/18 10:05:44;;;;;;;16.57;15.97;;;;;;;;;;5497871;25;21049;-71
2024/04/18 10:08:13;;;;;;;16.90;16.20;;;;;;;;;;5498707;25;21063;-70
2024/04/18 10:10:42;;;;;;;16.97;16.27;;;;;;;;;;5496328;25;20476;-72
2024/04/18 10:13:14;;;;;;;16.50;15.90;;;;;;;;;;5494994;25;20513;-72
2024/04/18 10:15:43;;;;;;;16.20;15.60;;;;;;;;;;5497367;25;20481;-72
2024/04/18 10:18:16;;;;;;;16.80;16.10;;;;;;;;;;5501779;25;21274;-70
2024/04/18 10:20:45;;;;;;;17.40;16.70;;;;;;;;;;5499683;25;20497;-71
2024/04/18 10:23:14;;;;;;;16.60;16.00;;;;;;;;;;5493205;25;20759;-72
2024/04/18 10:25:44;;;;;;;16.77;16.17;;;;;;;;;;5499559;25;20484;-70
2024/04/18 10:28:26;;;;;;;16.10;15.50;;;;;;;;;;5499772;25;20486;-71
2024/04/18 10:30:55;;;;;;;16.87;16.27;;;;;;;;;;5493421;25;21256;-70
2024/04/18 10:33:30;;;;;;;16.60;16.00;;;;;;;;;;5495781;25;20454;-70
2024/04/18 10:36:00;;;;;;;16.70;16.10;;;;;;;;;;5501111;25;21125;-70
2024/04/18 10:38:29;;;;;;;17.10;16.50;;;;;;;;;;5499374;25;20522;-71
2024/04/18 10:41:02;;;;;;;16.50;15.90;;;;;;;;;;5501853;25;20467;-70
2024/04/18 10:43:35;;;;;;;17.10;16.40;;;;;;;;;;5495587;25;21028;-70
2024/04/18 10:46:07;;;;;;;17.10;16.50;;;;;;;;;;5497338;25;20552;-69
2024/04/18 10:48:36;;;;;;;17.20;16.60;;;;;;;;;;5500237;25;20490;-69
2024/04/18 10:51:05;;;;;;;17.40;16.80;;;;;;;;;;5498863;25;20527;-70
2024/04/18 10:53:35;;;;;;;17.30;16.70;;;;;;;;;;5498843;25;20524;-70
2024/04/18 10:56:04;;;;;;;17.70;17.00;;;;;;;;;;5494624;25;20782;-71
2024/04/18 10:58:35;;;;;;;17.33;16.73;;;;;;;;;;5498825;25;21061;-70
2024/04/18 11:01:05;;;;;;;17.00;16.40;;;;;;;;;;5499694;25;20476;-72
2024/04/18 11:03:34;;;;;;;17.73;17.03;;;;;;;;;;5498898;25;20468;-72
2024/04/18 11:06:03;;;;;;;17.47;16.80;;;;;;;;;;5500222;25;20530;-69
2024/04/18 11:08:32;;;;;;;17.97;17.27;;;;;;;;;;5493736;25;20478;-72
2024/04/18 11:11:01;;;;;;;16.60;16.00;;;;;;;;;;5492543;25;20480;-72
2024/04/18 11:13:30;;;;;;;17.20;16.60;;;;;;;;;;5500896;25;20484;-69
2024/04/18 11:16:02;;;;;;;17.30;16.70;;;;;;;;;;5503007;25;20457;-71
2024/04/18 11:18:31;;;;;;;16.90;16.30;;;;;;;;;;5495403;25;20530;-72
2024/04/18 11:21:01;;;;;;;17.20;16.60;;;;;;;;;;5496977;25;20539;-69
2024/04/18 11:23:31;;;;;;;17.03;16.43;;;;;;;;;;5491997;25;20483;-70
2024/04/18 11:26:00;;;;;;;17.03;16.43;;;;;;;;;;5500880;25;20461;-73
2024/04/18 11:28:29;;;;;;;16.63;16.03;;;;;;;;;;5496325;25;21065;-72
2024/04/18 11:30:57;;;;;;;16.70;16.10;;;;;;;;;;5489758;25;20550;-71
2024/04/18 11:33:30;;;;;;;16.67;16.07;;;;;;;;;;5497099;25;20479;-72
2024/04/18 11:35:59;;;;;;;16.60;16.00;;;;;;;;;;5499727;25;20583;-72
2024/04/18 11:38:28;;;;;;;16.80;16.20;;;;;;;;;;5492109;25;20990;-70
2024/04/18 11:40:57;;;;;;;18.33;17.63;;;;;;;;;;5497533;25;22487;-70
2024/04/18 11:43:26;;;;;;;17.80;17.10;;;;;;;;;;5494699;25;20532;-70
2024/04/18 11:45:55;;;;;;;17.70;17.00;;;;;;;;;;5494725;25;20551;-69
2024/04/18 11:48:25;;;;;;;16.23;15.70;;;;;;;;;;5496447;25;20465;-71
2024/04/18 11:50:58;;;;;;;16.67;16.07;;;;;;;;;;5484869;25;20915;-70
2024/04/18 11:53:27;;;;;;;17.10;16.50;;;;;;;;;;5492583;25;20480;-69
2024/04/18 11:55:56;;;;;;;16.77;16.17;;;;;;;;;;5498025;25;21052;-71
2024/04/18 11:58:26;;;;;;;16.37;15.80;;;;;;;;;;5494214;25;20527;-71
2024/04/18 12:00:54;;;;;;;17.20;16.60;;;;;;;;;;5500300;25;20713;-70
2024/04/18 12:03:23;;;;;;;17.03;16.43;;;;;;;;;;5495059;25;20558;-71
2024/04/18 12:05:53;;;;;;;16.70;16.10;;;;;;;;;;5492809;25;20523;-69
2024/04/18 12:08:26;;;;;;;16.93;16.33;;;;;;;;;;5504379;25;20475;-70
2024/04/18 12:10:55;;;;;;;16.70;16.10;;;;;;;;;;5501123;25;20930;-70
2024/04/18 12:13:26;;;;;;;16.90;16.30;;;;;;;;;;5493650;25;20551;-70
2024/04/18 12:15:52;;;;;;;16.43;15.83;;;;;;;;;;5500265;25;21012;-70
2024/04/18 12:18:21;;;;;;;18.00;17.20;;;;;;;;;;5502346;25;20479;-69
2024/04/18 12:20:50;;;;;;;16.63;16.03;;;;;;;;;;5501664;25;20490;-70
2024/04/18 12:23:19;;;;;;;16.93;16.33;;;;;;;;;;5494053;25;20478;-70
2024/04/18 12:25:52;;;;;;;16.30;15.70;;;;;;;;;;5495563;25;20999;-72
2024/04/18 12:28:22;;;;;;;16.20;15.60;;;;;;;;;;5498680;26;20539;-71
2024/04/18 12:30:50;;;;;;;16.83;16.23;;;;;;;;;;5504203;26;21025;-69
2024/04/18 12:33:19;;;;;;;16.27;15.67;;;;;;;;;;5507096;26;20472;-70
2024/04/18 12:35:48;;;;;;;16.80;16.20;;;;;;;;;;5498337;26;20556;-69
2024/04/18 12:38:17;;;;;;;16.60;16.00;;;;;;;;;;5502817;25;20493;-69
2024/04/18 12:40:47;;;;;;;16.47;15.87;;;;;;;;;;5510133;25;21201;-70
2024/04/18 12:43:19;;;;;;;16.40;15.80;;;;;;;;;;5495795;26;20569;-72
2024/04/18 12:45:48;;;;;;;16.17;15.60;;;;;;;;;;5506432;26;20607;-71
2024/04/18 12:48:17;;;;;;;16.83;16.23;;;;;;;;;;5499475;26;20807;-70
2024/04/18 12:50:46;;;;;;;17.00;16.40;;;;;;;;;;5514983;26;21087;-70
2024/04/18 12:53:15;;;;;;;16.93;16.33;;;;;;;;;;5513962;25;20526;-70
2024/04/18 12:55:44;;;;;;;17.33;16.63;;;;;;;;;;5500700;26;20519;-70
2024/04/18 12:58:13;;;;;;;17.20;16.60;;;;;;;;;;5502966;26;20507;-71
2024/04/18 13:00:45;;;;;;;16.97;16.37;;;;;;;;;;5501999;26;20471;-70
2024/04/18 13:03:14;;;;;;;17.10;16.50;;;;;;;;;;5508641;25;20493;-70
2024/04/18 13:05:41;;;;;;;16.67;16.07;;;;;;;;;;5497959;26;20603;-70
2024/04/18 13:08:10;;;;;;;16.50;15.90;;;;;;;;;;5511225;26;20812;-70
2024/04/18 13:10:38;;;;;;;16.83;16.23;;;;;;;;;;5510605;26;20473;-69
2024/04/18 13:13:07;;;;;;;16.30;15.70;;;;;;;;;;5507497;26;20579;-69
2024/04/18 13:15:36;;;;;;;17.00;16.40;;;;;;;;;;5501808;26;20481;-69
2024/04/18 13:18:08;;;;;;;16.87;16.27;;;;;;;;;;5497370;26;20489;-72
2024/04/18 13:20:37;;;;;;;16.67;16.07;;;;;;;;;;5506689;26;20813;-68
2024/04/18 13:23:04;;;;;;;16.97;16.37;;;;;;;;;;5505340;25;20481;-69
2024/04/18 13:25:33;;;;;;;16.97;16.37;;;;;;;;;;5502850;26;20490;-69
2024/04/18 13:28:03;;;;;;;17.10;16.50;;;;;;;;;;5503464;26;20600;-69
2024/04/18 13:30:33;;;;;;;17.30;16.70;;;;;;;;;;5497452;26;20541;-68
2024/04/18 13:33:02;;;;;;;16.50;15.90;;;;;;;;;;5498189;26;20539;-69
2024/04/18 13:35:34;;;;;;;16.77;16.17;;;;;;;;;;5496662;26;20476;-68
2024/04/18 13:38:05;;;;;;;16.73;16.13;;;;;;;;;;5511679;26;20575;-70
2024/04/18 13:40:34;;;;;;;17.20;16.60;;;;;;;;;;5515357;25;20482;-71
2024/04/18 13:43:03;;;;;;;17.57;16.87;;;;;;;;;;5496894;25;20883;-69
2024/04/18 13:45:33;;;;;;;17.60;16.90;;;;;;;;;;5511223;26;20491;-68
2024/04/18 13:48:03;;;;;;;16.70;16.10;;;;;;;;;;5513026;26;20472;-67
2024/04/18 13:50:32;;;;;;;17.03;16.37;;;;;;;;;;5498786;25;20467;-68
2024/04/18 13:53:01;;;;;;;17.37;16.67;;;;;;;;;;5500430;26;21153;-69
2024/04/18 13:55:30;;;;;;;17.67;16.97;;;;;;;;;;5505211;26;20475;-68
2024/04/18 13:57:59;;;;;;;17.77;17.07;;;;;;;;;;5508166;26;20907;-69
2024/04/18 14:00:29;;;;;;;16.70;16.10;;;;;;;;;;5496973;25;20478;-69
2024/04/18 14:02:58;;;;;;;16.70;16.10;;;;;;;;;;5508076;26;20471;-68
2024/04/18 14:05:27;;;;;;;16.93;16.33;;;;;;;;;;5501803;26;20898;-72
2024/04/18 14:07:59;;;;;;;16.80;16.20;;;;;;;;;;5505677;26;20469;-68
2024/04/18 14:10:28;;;;;;;17.63;16.93;;;;;;;;;;5489715;26;20536;-71
2024/04/18 14:12:57;;;;;;;17.70;17.00;;;;;;;;;;5507918;26;21098;-67
2024/04/18 14:15:35;;;;;;;17.47;16.87;;;;;;;;;;5505857;26;20487;-71
2024/04/18 14:20:50;;;;;;;16.30;15.70;;;;;;;;;;5510342;26;20611;-68
2024/04/18 14:23:21;;;;;;;16.30;15.70;;;;;;;;;;5497671;25;20482;-69
2024/04/18 14:25:47;;;;;;;17.13;16.53;;;;;;;;;;5508925;26;21251;-69
2024/04/18 14:28:17;;;;;;;17.20;16.60;;;;;;;;;;5505205;25;20486;-68
2024/04/18 14:30:46;;;;;;;16.70;16.10;;;;;;;;;;5504646;26;20678;-69